CW1734 Weather Reports


Display with metric or nautical units.
time (UTC)temp
F
wind
direction
speed
MPH
gust
MPH
rain 1hr
in
rain 24hr
in
rain mn
in
humidity
%
barometer
mb
20210225013910 52 203 9.0 15.0 0.00 0.00 0.00 82 1022.1
20210225013407 52 203 7.0 15.0 0.00 0.00 0.00 81 1022.1
20210225013128 53 214 8.0 13.0 0.00 0.00 0.00 81 1022.1
20210225012455 53 205 9.0 15.0 0.00 0.00 0.00 81 1022.1
20210225011904 53 213 7.0 16.0 0.00 0.00 0.00 80 1022.1
20210225011404 53 201 10.0 16.0 0.00 0.00 0.00 80 1022.1
20210225010905 53 197 7.0 15.0 0.00 0.00 0.00 80 1022.1
20210225010406 53 199 7.0 13.0 0.00 0.00 0.00 80 1022.1
20210225005906 53 198 10.0 20.0 0.00 0.00 0.00 80 1022.1
20210225005405 53 202 11.0 20.0 0.00 0.00 0.00 80 1022.1
20210225004904 53 208 8.0 14.0 0.00 0.00 0.00 80 1022.1
20210225004408 53 190 10.0 16.0 0.00 0.00 0.00 81 1022.1
20210225003915 53 201 7.0 13.0 0.00 0.00 0.00 81 1022.1
20210225003405 53 188 5.0 13.0 0.00 0.00 0.00 81 1022.1
20210225003120 53 190 3.0 12.0 0.00 0.00 0.00 81 1022.1
20210225002509 53 200 6.0 14.0 0.00 0.00 0.00 81 1022.1
20210225001904 53 211 4.0 8.0 0.00 0.00 0.00 81 1022.1
20210225001406 53 208 5.0 12.0 0.00 0.00 0.00 80 1022.1
20210225000907 52 211 5.0 10.0 0.00 0.00 0.00 81 1022.1
20210225000407 52 196 5.0 8.0 0.00 0.00 0.00 80 1022.1
20210224235904 52 189 6.0 10.0 0.00 0.00 0.00 81 1022.2
20210224235444 52 203 3.0 9.0 0.00 0.00 0.00 80 1022.2
20210224235144 52 205 2.0 5.0 0.00 0.00 0.00 80 1022.2
20210224234404 52 204 3.0 8.0 0.00 0.00 0.00 80 1022.2
20210224233905 53 180 6.0 12.0 0.00 0.00 0.00 79 1022.2
20210224233404 53 181 2.0 3.0 0.00 0.00 0.00 79 1022.0
20210224232953 53 177 5.0 8.0 0.00 0.00 0.00 79 1022.0
20210224232436 53 199 5.0 10.0 0.00 0.00 0.00 79 1022.0
20210224231906 53 144 5.0 12.0 0.00 0.00 0.00 78 1022.0
20210224231411 53 203 5.0 10.0 0.00 0.00 0.00 78 1022.0
20210224230905 53 198 6.0 12.0 0.00 0.00 0.00 78 1022.0
20210224230405 53 211 6.0 10.0 0.00 0.00 0.00 77 1022.0
20210224225912 53 196 5.0 10.0 0.00 0.00 0.00 77 1022.0
20210224225405 53 195 4.0 10.0 0.00 0.00 0.00 76 1022.0
20210224224905 53 185 7.0 12.0 0.00 0.00 0.00 76 1022.0
20210224224406 54 192 7.0 16.0 0.00 0.00 0.00 76 1022.0
20210224223908 54 208 6.0 12.0 0.00 0.00 0.00 76 1022.0
20210224223421 54 185 8.0 14.0 0.00 0.00 0.00 74 1022.0
20210224222955 54 195 6.0 18.0 0.00 0.00 0.00 73 1022.0
20210224222447 55 203 10.0 17.0 0.00 0.00 0.00 72 1022.0
20210224221916 55 208 12.0 20.0 0.00 0.00 0.00 71 1021.8
20210224221405 55 199 10.0 17.0 0.00 0.00 0.00 71 1021.8
20210224220904 55 192 9.0 14.0 0.00 0.00 0.00 71 1021.8
20210224220407 55 194 5.0 16.0 0.00 0.00 0.00 71 1021.8
20210224215905 55 224 8.0 18.0 0.00 0.00 0.00 71 1021.8
20210224215453 56 185 5.0 14.0 0.00 0.00 0.00 69 1021.8
20210224215111 56 209 11.0 22.0 0.00 0.00 0.00 69 1021.5
20210224214409 55 210 8.0 15.0 0.00 0.00 0.00 70 1021.5
20210224213904 55 201 7.0 10.0 0.00 0.00 0.00 71 1021.5
20210224213410 55 201 6.0 13.0 0.00 0.00 0.00 72 1021.5
20210224212926 55 214 5.0 12.0 0.00 0.00 0.00 72 1021.5
20210224212424 54 204 5.0 9.0 0.00 0.00 0.00 73 1021.7
20210224211904 54 195 3.0 7.0 0.00 0.00 0.00 75 1021.7
20210224211404 54 185 2.0 3.0 0.00 0.00 0.00 76 1021.7
20210224210904 54 200 3.0 9.0 0.00 0.00 0.00 76 1021.7
20210224210409 54 183 6.0 12.0 0.00 0.00 0.00 76 1021.7
20210224205905 54 176 7.0 14.0 0.00 0.00 0.00 76 1021.7
20210224205406 55 192 9.0 18.0 0.00 0.00 0.00 75 1021.7
20210224204932 55 176 5.0 12.0 0.00 0.00 0.00 75 1021.6
20210224204404 55 187 6.0 16.0 0.00 0.00 0.00 75 1021.6
20210224203912 55 178 8.0 16.0 0.00 0.00 0.00 75 1021.6
20210224203404 55 197 7.0 15.0 0.00 0.00 0.00 75 1021.6
20210224202926 56 203 7.0 14.0 0.00 0.00 0.00 75 1021.5
20210224202416 56 189 10.0 20.0 0.00 0.00 0.00 75 1021.5
20210224201904 56 172 7.0 12.0 0.00 0.00 0.00 75 1021.5
20210224201411 56 178 6.0 14.0 0.00 0.00 0.00 75 1021.5
20210224200906 56 184 6.0 14.0 0.00 0.00 0.00 75 1021.6
20210224200406 56 205 7.0 16.0 0.00 0.00 0.00 76 1021.6
20210224195905 56 202 6.0 14.0 0.00 0.00 0.00 76 1021.6
20210224195415 56 203 6.0 12.0 0.00 0.00 0.00 77 1021.6
20210224195058 55 197 6.0 12.0 0.00 0.00 0.00 77 1021.5
20210224194405 55 200 6.0 12.0 0.00 0.00 0.00 78 1021.5
20210224193904 55 206 5.0 10.0 0.00 0.00 0.00 78 1021.5
20210224193407 55 187 6.0 12.0 0.00 0.00 0.00 77 1021.5
20210224192926 55 192 6.0 10.0 0.00 0.00 0.00 77 1021.5
20210224192412 55 187 7.0 12.0 0.00 0.00 0.00 77 1021.5
20210224191903 55 202 7.0 17.0 0.00 0.00 0.00 77 1021.5
20210224191402 55 210 8.0 17.0 0.00 0.00 0.00 77 1021.5
20210224190906 55 198 7.0 12.0 0.00 0.00 0.00 77 1021.5
20210224190405 55 205 6.0 12.0 0.00 0.00 0.00 78 1021.5
20210224185903 55 180 6.0 10.0 0.00 0.00 0.00 78 1021.5
20210224185439 55 195 6.0 10.0 0.00 0.00 0.00 78 1021.5
20210224185100 55 184 6.0 9.0 0.00 0.00 0.00 78 1021.5
20210224184405 55 186 6.0 10.0 0.00 0.00 0.00 78 1021.5
20210224183908 55 208 6.0 10.0 0.00 0.00 0.00 78 1021.5
20210224183403 55 180 6.0 12.0 0.00 0.00 0.00 77 1021.5
20210224182909 55 191 7.0 17.0 0.00 0.00 0.00 77 1021.5
20210224182412 55 196 9.0 15.0 0.00 0.00 0.00 77 1021.5
20210224181905 56 183 6.0 15.0 0.00 0.00 0.00 77 1021.5
20210224181405 56 206 5.0 17.0 0.00 0.00 0.00 77 1021.5
20210224180902 56 209 7.0 16.0 0.00 0.00 0.00 77 1021.4
20210224180402 56 172 6.0 12.0 0.00 0.00 0.00 77 1021.4
20210224175905 56 195 6.0 15.0 0.00 0.00 0.00 77 1021.4
20210224175406 56 188 7.0 13.0 0.00 0.00 0.00 77 1021.3
20210224174926 56 206 6.0 12.0 0.00 0.00 0.00 77 1021.3
20210224174403 56 203 5.0 14.0 0.00 0.00 0.00 77 1021.1
20210224173906 56 156 3.0 10.0 0.00 0.00 0.00 76 1021.1
20210224173407 56 192 7.0 15.0 0.00 0.00 0.00 76 1021.1
20210224172904 56 200 6.0 12.0 0.00 0.00 0.00 76 1021.1
20210224172411 56 192 5.0 13.0 0.00 0.00 0.00 76 1021.0
20210224171903 56 194 5.0 12.0 0.00 0.00 0.00 76 1021.0
20210224171402 56 168 4.0 12.0 0.00 0.00 0.00 76 1021.0
20210224170904 56 208 7.0 12.0 0.00 0.00 0.00 76 1021.1
20210224170404 56 153 5.0 12.0 0.00 0.00 0.00 75 1021.1
20210224165903 56 196 6.0 16.0 0.00 0.00 0.00 75 1021.0
20210224165403 56 170 6.0 16.0 0.00 0.00 0.00 76 1021.0
20210224164917 56 182 7.0 13.0 0.00 0.00 0.00 76 1021.0
20210224164403 56 214 8.0 13.0 0.00 0.00 0.00 76 1021.0
20210224163906 56 182 6.0 12.0 0.00 0.00 0.00 76 1021.0
20210224163403 57 191 5.0 10.0 0.00 0.00 0.00 75 1021.1
20210224162904 57 175 7.0 13.0 0.00 0.00 0.00 75 1021.1
20210224162409 57 168 5.0 15.0 0.00 0.00 0.00 75 1021.1
20210224161909 57 183 6.0 12.0 0.00 0.00 0.00 75 1021.1
20210224161404 57 186 5.0 15.0 0.00 0.00 0.00 75 1021.1
20210224160911 57 169 6.0 15.0 0.00 0.00 0.00 74 1021.5
20210224160409 57 177 6.0 12.0 0.00 0.00 0.00 74 1021.5
20210224155903 58 175 7.0 15.0 0.00 0.00 0.00 73 1021.5
20210224155406 58 184 7.0 17.0 0.00 0.00 0.00 73 1021.5
20210224154935 58 192 6.0 12.0 0.00 0.00 0.00 73 1021.5
20210224154402 58 188 13.0 21.0 0.00 0.00 0.00 72 1021.5
20210224153903 58 182 9.0 21.0 0.00 0.00 0.00 72 1021.5
20210224153402 58 182 10.0 20.0 0.00 0.00 0.00 72 1021.8
20210224152906 58 215 10.0 21.0 0.00 0.00 0.00 72 1021.8
20210224152405 58 188 8.0 18.0 0.00 0.00 0.00 72 1021.8
20210224151903 58 205 8.0 18.0 0.00 0.00 0.00 73 1021.8
20210224151404 58 192 7.0 12.0 0.00 0.00 0.00 72 1021.9
20210224150903 58 180 6.0 13.0 0.00 0.00 0.00 72 1021.9
20210224150403 58 172 7.0 14.0 0.00 0.00 0.00 72 1021.9
20210224145905 58 185 6.0 12.0 0.00 0.00 0.00 72 1021.9
20210224145403 58 186 9.0 18.0 0.00 0.00 0.00 72 1022.2
20210224145053 58 168 9.0 15.0 0.00 0.00 0.00 72 1022.2
20210224144402 59 174 7.0 18.0 0.00 0.00 0.00 71 1022.2
20210224143909 59 183 6.0 15.0 0.00 0.00 0.00 71 1022.2
20210224143403 59 194 9.0 16.0 0.00 0.00 0.00 71 1022.2
20210224142914 59 164 5.0 12.0 0.00 0.00 0.00 73 1022.2
20210224142419 59 175 3.0 13.0 0.00 0.00 0.00 73 1022.1
20210224141906 58 139 7.0 14.0 0.00 0.00 0.00 73 1022.1
20210224141403 58 195 4.0 10.0 0.00 0.00 0.00 74 1022.1
20210224140903 58 178 5.0 12.0 0.00 0.00 0.00 73 1022.1
20210224140402 58 160 9.0 16.0 0.00 0.00 0.00 72 1022.2
20210224135902 58 154 7.0 16.0 0.00 0.00 0.00 72 1022.2
20210224135403 58 171 5.0 14.0 0.00 0.00 0.00 73 1022.1
20210224134904 58 175 7.0 14.0 0.00 0.00 0.00 72 1022.1
20210224134403 58 179 7.0 12.0 0.00 0.00 0.00 73 1022.1
20210224133903 58 188 7.0 14.0 0.00 0.00 0.00 73 1022.1
20210224133403 58 185 7.0 13.0 0.00 0.00 0.00 73 1022.1
20210224133027 58 146 6.0 12.0 0.00 0.00 0.00 73 1022.1
20210224132454 58 178 7.0 20.0 0.00 0.00 0.00 73 1022.2
20210224131903 58 187 9.0 18.0 0.00 0.00 0.00 73 1022.2
20210224131407 58 179 6.0 18.0 0.00 0.00 0.00 74 1022.2
20210224130905 58 157 9.0 14.0 0.00 0.00 0.00 74 1022.3
20210224130403 59 189 7.0 14.0 0.00 0.00 0.00 74 1022.4
20210224125904 59 176 6.0 14.0 0.00 0.00 0.00 74 1022.6
20210224125543 58 193 8.0 17.0 0.00 0.00 0.00 75 1022.6
20210224125111 57 167 7.0 17.0 0.00 0.00 0.00 76 1022.6
20210224124404 57 154 6.0 13.0 0.00 0.00 0.00 76 1022.6
20210224123911 57 167 5.0 17.0 0.00 0.00 0.00 77 1022.6
20210224123405 57 124 5.0 12.0 0.00 0.00 0.00 76 1022.6
20210224123027 57 167 6.0 10.0 0.00 0.00 0.00 76 1022.7
20210224122441 57 155 7.0 13.0 0.00 0.00 0.00 76 1022.7
20210224121904 57 169 8.0 13.0 0.00 0.00 0.00 76 1022.7
20210224121405 58 187 6.0 13.0 0.00 0.00 0.00 76 1022.7
20210224120903 58 163 5.0 13.0 0.00 0.00 0.00 76 1022.7
20210224120405 58 166 6.0 15.0 0.00 0.00 0.00 76 1022.7
20210224115903 58 154 8.0 18.0 0.00 0.00 0.00 74 1022.7
20210224115425 59 170 5.0 13.0 0.00 0.00 0.00 75 1023.0
20210224115035 59 159 8.0 16.0 0.00 0.00 0.00 74 1023.0
20210224114403 58 161 6.0 14.0 0.00 0.00 0.00 75 1023.0
20210224113903 58 198 5.0 17.0 0.00 0.00 0.00 75 1023.0
20210224113404 58 177 8.0 14.0 0.00 0.00 0.00 76 1023.1
20210224112904 58 196 10.0 22.0 0.00 0.00 0.00 76 1023.1
20210224112407 57 179 8.0 18.0 0.00 0.00 0.00 77 1023.2
20210224111903 57 152 7.0 14.0 0.00 0.00 0.00 78 1023.2
20210224111403 56 162 7.0 14.0 0.00 0.00 0.00 77 1023.2
20210224110906 57 157 6.0 16.0 0.00 0.00 0.00 77 1023.1
20210224110405 57 166 5.0 18.0 0.00 0.00 0.00 77 1023.1
20210224105904 57 188 9.0 17.0 0.00 0.00 0.00 76 1023.1
20210224105403 57 186 8.0 20.0 0.00 0.00 0.00 77 1023.2
20210224104920 56 174 9.0 21.0 0.00 0.00 0.00 77 1023.0
20210224104408 57 173 11.0 20.0 0.00 0.00 0.00 76 1023.0
20210224103903 57 183 10.0 18.0 0.00 0.00 0.00 76 1023.0
20210224103402 57 190 10.0 20.0 0.00 0.00 0.00 77 1023.0
20210224102902 56 185 7.0 14.0 0.00 0.00 0.00 77 1023.0
20210224102442 56 178 8.0 20.0 0.00 0.00 0.00 77 1023.0
20210224101904 56 161 7.0 20.0 0.00 0.00 0.00 77 1023.1
20210224101403 56 182 9.0 17.0 0.00 0.00 0.00 77 1023.1
20210224100905 56 186 9.0 16.0 0.00 0.00 0.00 78 1023.1
20210224100405 56 191 7.0 17.0 0.00 0.00 0.00 78 1023.1
20210224095910 55 174 10.0 24.0 0.00 0.00 0.00 78 1023.1
20210224095403 56 170 10.0 18.0 0.00 0.00 0.00 78 1023.1
20210224095022 56 169 9.0 20.0 0.00 0.00 0.00 77 1023.1
20210224094403 55 180 11.0 22.0 0.00 0.00 0.00 78 1023.1
20210224093904 54 190 11.0 20.0 0.00 0.00 0.00 79 1023.1
20210224093404 54 178 7.0 14.0 0.00 0.00 0.00 78 1023.2
20210224092914 54 169 8.0 15.0 0.00 0.00 0.00 78 1023.2
20210224092429 54 179 4.0 12.0 0.00 0.00 0.00 78 1023.2
20210224091903 54 193 8.0 18.0 0.00 0.00 0.00 78 1023.2
20210224091403 54 193 8.0 14.0 0.00 0.00 0.00 78 1023.2
20210224090903 54 200 9.0 16.0 0.00 0.00 0.00 77 1023.2
20210224090405 54 185 7.0 14.0 0.00 0.00 0.00 77 1023.3
20210224085906 54 180 7.0 18.0 0.00 0.00 0.00 77 1023.3
20210224085403 54 188 9.0 18.0 0.00 0.00 0.00 76 1023.3
20210224085028 54 173 11.0 23.0 0.00 0.00 0.00 77 1023.3
20210224084403 54 173 9.0 20.0 0.00 0.00 0.00 77 1023.4
20210224083903 54 191 8.0 20.0 0.00 0.00 0.00 77 1023.4
20210224083408 54 176 7.0 14.0 0.00 0.00 0.00 78 1023.4
20210224082904 53 201 6.0 20.0 0.00 0.00 0.00 78 1023.4
20210224082408 53 183 7.0 15.0 0.00 0.00 0.00 77 1023.4
20210224081904 54 168 7.0 13.0 0.00 0.00 0.00 76 1023.4
20210224081403 54 183 7.0 14.0 0.00 0.00 0.00 74 1023.4
20210224080903 55 179 6.0 18.0 0.00 0.00 0.00 73 1023.4
20210224080406 55 197 10.0 17.0 0.00 0.00 0.00 72 1023.3
20210224075906 55 166 8.0 21.0 0.00 0.00 0.00 72 1023.3
20210224075435 54 194 7.0 18.0 0.00 0.00 0.00 73 1023.2
20210224074954 54 199 8.0 13.0 0.00 0.00 0.00 74 1023.2
20210224074404 54 187 9.0 16.0 0.00 0.00 0.00 74 1023.1
20210224073904 54 182 12.0 20.0 0.00 0.00 0.00 74 1023.1
20210224073404 53 194 6.0 18.0 0.00 0.00 0.00 75 1023.1
20210224072906 53 195 10.0 17.0 0.00 0.00 0.00 75 1023.1
20210224072411 53 189 9.0 16.0 0.00 0.00 0.00 76 1023.1
20210224071904 53 185 10.0 16.0 0.00 0.00 0.00 76 1023.1
20210224071404 53 183 11.0 18.0 0.00 0.00 0.00 76 1023.1
20210224070903 53 191 9.0 17.0 0.00 0.00 0.00 76 1023.0
20210224070405 53 187 9.0 18.0 0.00 0.00 0.00 78 1023.1
20210224065915 52 201 6.0 14.0 0.00 0.00 0.00 78 1023.1
20210224065435 52 186 6.0 14.0 0.00 0.00 0.00 79 1023.1
20210224065103 52 191 7.0 17.0 0.00 0.00 0.00 79 1023.1
20210224064403 52 170 6.0 14.0 0.00 0.00 0.00 80 1023.1
20210224063903 52 206 7.0 18.0 0.00 0.00 0.00 80 1023.1
20210224063407 52 170 9.0 20.0 0.00 0.00 0.00 79 1023.1
20210224062908 52 189 8.0 15.0 0.00 0.00 0.00 79 1023.2
20210224062446 52 189 8.0 15.0 0.00 0.00 0.00 79 1023.2
20210224061906 52 186 10.0 18.0 0.00 0.00 0.00 80 1023.2
20210224061404 52 195 7.0 14.0 0.00 0.00 0.00 80 1023.2
20210224060903 53 176 8.0 20.0 0.00 0.00 0.00 80 1023.0
20210224060403 53 196 7.0 15.0 0.00 0.00 0.00 80 1023.0
20210224055908 53 181 6.0 17.0 0.00 0.00 0.00 80 1022.8
20210224055403 53 174 8.0 21.0 0.00 0.00 0.00 80 1022.8
20210224054950 53 189 12.0 24.0 0.00 0.00 0.00 79 1022.8
20210224054403 53 188 13.0 24.0 0.00 0.00 0.00 80 1022.8
20210224053904 53 173 13.0 24.0 0.00 0.00 0.00 80 1022.8
20210224053403 53 190 12.0 20.0 0.00 0.00 0.00 80 1022.8
20210224052936 53 187 9.0 21.0 0.00 0.00 0.00 81 1022.7
20210224052441 52 187 10.0 21.0 0.00 0.00 0.00 81 1022.7
20210224051909 52 185 13.0 25.0 0.00 0.00 0.00 81 1022.7
20210224051405 52 175 9.0 20.0 0.00 0.00 0.00 81 1022.8
20210224050906 52 190 7.0 21.0 0.00 0.00 0.00 81 1022.8
20210224050404 53 178 10.0 22.0 0.00 0.00 0.00 81 1022.7
20210224045903 53 185 9.0 17.0 0.00 0.00 0.00 81 1022.8
20210224045404 53 174 10.0 21.0 0.00 0.00 0.00 81 1022.9
20210224044909 53 189 12.0 20.0 0.00 0.00 0.00 81 1022.9
20210224044404 53 179 11.0 21.0 0.00 0.00 0.00 80 1022.9
20210224043905 53 191 12.0 21.0 0.00 0.00 0.00 80 1022.9
20210224043405 53 188 8.0 17.0 0.00 0.00 0.00 80 1022.9
20210224042904 53 186 9.0 15.0 0.00 0.00 0.00 80 1022.9
20210224042407 53 177 7.0 22.0 0.00 0.00 0.00 79 1022.9
20210224041903 53 187 8.0 18.0 0.00 0.00 0.00 79 1022.9
20210224041403 53 193 12.0 24.0 0.00 0.00 0.00 79 1022.8
20210224040903 53 182 12.0 24.0 0.00 0.00 0.00 79 1022.8
20210224040403 53 196 13.0 22.0 0.00 0.00 0.00 78 1022.7
20210224035902 53 194 10.0 22.0 0.00 0.00 0.00 78 1022.7
20210224035403 53 200 11.0 18.0 0.00 0.00 0.00 78 1022.7
20210224034903 53 193 11.0 20.0 0.00 0.00 0.00 78 1022.7
20210224034404 53 187 9.0 20.0 0.00 0.00 0.00 78 1022.7
20210224033906 53 193 10.0 18.0 0.00 0.00 0.00 78 1022.7
20210224033404 54 195 9.0 20.0 0.00 0.00 0.00 78 1022.7
20210224032909 54 183 10.0 22.0 0.00 0.00 0.00 78 1022.6
20210224032413 54 197 12.0 21.0 0.00 0.00 0.00 79 1022.7
20210224031903 54 203 9.0 24.0 0.00 0.00 0.00 79 1022.7
20210224031404 53 192 10.0 22.0 0.00 0.00 0.00 79 1022.7
20210224030906 53 182 10.0 22.0 0.00 0.00 0.00 79 1022.7
20210224030403 54 185 10.0 18.0 0.00 0.00 0.00 79 1022.9
20210224025903 54 211 10.0 18.0 0.00 0.00 0.00 79 1022.9
20210224025405 54 184 9.0 20.0 0.00 0.00 0.00 80 1022.9
20210224025041 54 193 11.0 23.0 0.00 0.00 0.00 79 1022.9
20210224024403 54 167 12.0 21.0 0.00 0.00 0.00 79 1022.9
20210224023905 54 193 10.0 23.0 0.00 0.00 0.00 79 1022.9
20210224023403 54 192 9.0 21.0 0.00 0.00 0.00 79 1022.9
20210224022929 54 198 9.0 15.0 0.00 0.00 0.00 79 1022.9
20210224022438 54 189 12.0 21.0 0.00 0.00 0.00 79 1022.9
20210224021903 54 178 14.0 22.0 0.00 0.00 0.00 79 1022.9
20210224021406 54 183 9.0 23.0 0.00 0.00 0.00 78 1022.9
20210224020903 54 192 11.0 24.0 0.00 0.00 0.00 78 1022.9
20210224020403 54 187 12.0 25.0 0.00 0.00 0.00 78 1022.9
20210224015907 54 195 13.0 24.0 0.00 0.00 0.00 78 1023.0
20210224015404 54 181 12.0 25.0 0.00 0.00 0.00 78 1023.0
20210224014903 54 183 14.0 24.0 0.00 0.00 0.00 78 1023.0
20210224014403 54 169 10.0 25.0 0.00 0.00 0.00 78 1023.0